Time;durP1;ratioP1;P1;durP2;ratioP2;P2;SDS_P1;SDS_P2;PMS_P1;PMS_P2;Temp;Humidity;BMP_temperature;BMP_pressure;BME280_temperature;BME280_humidity;BME280_pressure;Samples;Min_cycle;Max_cycle;Signal;HPM_P1;HPM_P2
2021/12/22 00:00:09;;;;;;;27.57;20.63;;;-1.80;99.90;;;;;;5030097;28;20494;-74
2021/12/22 00:02:39;;;;;;;28.83;21.33;;;-1.80;99.90;;;;;;5034584;28;20463;-71
2021/12/22 00:05:06;;;;;;;24.93;22.00;;;-1.80;99.90;;;;;;5033449;28;20482;-73
2021/12/22 00:07:33;;;;;;;29.67;22.43;;;-1.90;99.90;;;;;;5037139;28;20473;-74
2021/12/22 00:10:00;;;;;;;24.23;21.83;;;-1.90;99.90;;;;;;5032368;28;20471;-73
2021/12/22 00:12:26;;;;;;;25.20;22.00;;;-1.90;99.90;;;;;;5039372;28;20487;-73
2021/12/22 00:14:53;;;;;;;22.33;20.33;;;-1.90;99.90;;;;;;5042577;28;20460;-71
2021/12/22 00:17:20;;;;;;;22.23;20.10;;;-1.80;99.90;;;;;;5040346;28;20587;-72
2021/12/22 00:19:49;;;;;;;31.80;22.33;;;-1.80;99.90;;;;;;5040321;28;20470;-73
2021/12/22 00:22:15;;;;;;;22.80;20.90;;;-1.90;99.90;;;;;;5038073;28;20487;-72
2021/12/22 00:24:42;;;;;;;24.13;21.60;;;-1.90;99.90;;;;;;5041645;28;20988;-70
2021/12/22 00:27:09;;;;;;;22.90;20.87;;;-1.80;99.90;;;;;;5042469;28;20467;-72
2021/12/22 00:29:36;;;;;;;22.57;20.33;;;-1.80;99.90;;;;;;5044305;28;20918;-71
2021/12/22 00:32:12;;;;;;;22.07;20.03;;;-1.80;99.90;;;;;;5041901;28;20570;-72
2021/12/22 00:34:46;;;;;;;24.13;21.27;;;-1.80;99.90;;;;;;5035036;28;20519;-72
2021/12/22 00:37:16;;;;;;;24.73;22.23;;;-1.80;99.90;;;;;;5035334;28;20525;-72
2021/12/22 00:39:43;;;;;;;23.30;20.90;;;-1.70;99.90;;;;;;5039289;28;20475;-71
2021/12/22 00:42:11;;;;;;;24.77;21.90;;;-1.70;99.90;;;;;;5041540;28;21004;-73
2021/12/22 00:44:38;;;;;;;28.97;21.80;;;-1.80;99.90;;;;;;5034591;28;20468;-72
2021/12/22 00:47:05;;;;;;;25.90;22.37;;;-1.80;99.90;;;;;;5038608;28;20734;-70
2021/12/22 00:49:32;;;;;;;28.53;21.40;;;-1.80;99.90;;;;;;5038402;28;20995;-72
2021/12/22 00:51:59;;;;;;;28.67;21.83;;;-1.90;99.90;;;;;;5035152;28;20897;-73
2021/12/22 00:54:28;;;;;;;27.47;22.40;;;-1.90;99.90;;;;;;5032750;28;20468;-73
2021/12/22 00:57:00;;;;;;;24.53;22.37;;;-2.00;99.90;;;;;;5042279;28;20992;-73
2021/12/22 00:59:27;;;;;;;26.57;21.17;;;-1.90;99.90;;;;;;5041375;28;20524;-73
2021/12/22 01:01:54;;;;;;;23.33;20.63;;;-1.90;99.90;;;;;;5037108;28;20539;-73
2021/12/22 01:04:21;;;;;;;24.73;22.27;;;-1.90;99.90;;;;;;5040381;28;20466;-73
2021/12/22 01:06:48;;;;;;;23.50;20.40;;;-1.90;99.90;;;;;;5040773;28;20470;-71
2021/12/22 01:09:15;;;;;;;33.13;22.37;;;-1.90;99.90;;;;;;5041589;28;20475;-73
2021/12/22 01:11:44;;;;;;;22.37;20.00;;;-1.80;99.90;;;;;;5041995;28;20471;-73
2021/12/22 01:14:11;;;;;;;23.40;20.77;;;-1.90;99.90;;;;;;5037349;28;20466;-72
2021/12/22 01:16:39;;;;;;;24.37;21.90;;;-1.80;99.90;;;;;;5045676;28;20475;-72
2021/12/22 01:19:13;;;;;;;22.50;20.20;;;-1.80;99.90;;;;;;5036441;28;20496;-71
2021/12/22 01:21:45;;;;;;;21.80;19.47;;;-1.80;99.90;;;;;;5038707;28;20888;-70
2021/12/22 01:24:20;;;;;;;27.03;20.23;;;-1.80;99.90;;;;;;5036700;28;20472;-73
2021/12/22 01:26:52;;;;;;;23.43;21.30;;;-1.80;99.90;;;;;;5030586;28;20471;-73
2021/12/22 01:29:19;;;;;;;24.67;22.13;;;-1.80;99.90;;;;;;5034422;28;20482;-73
2021/12/22 01:31:47;;;;;;;23.77;21.60;;;-1.80;99.90;;;;;;5041697;28;20537;-72
2021/12/22 01:34:13;;;;;;;24.67;22.13;;;-1.90;99.90;;;;;;5036017;28;21026;-73
2021/12/22 01:36:41;;;;;;;22.30;20.20;;;-1.90;99.90;;;;;;5036670;28;20469;-70
2021/12/22 01:39:08;;;;;;;25.20;23.00;;;-1.90;99.90;;;;;;5041687;28;21113;-72
2021/12/22 01:41:35;;;;;;;28.33;22.57;;;-2.00;99.90;;;;;;5039607;28;20892;-72
2021/12/22 01:44:05;;;;;;;23.13;21.00;;;-2.00;99.90;;;;;;5037696;28;20468;-73
2021/12/22 01:49:18;;;;;;;22.77;20.60;;;-2.10;99.90;;;;;;5034941;28;20548;-73
2021/12/22 01:51:51;;;;;;;25.50;22.73;;;-2.10;99.90;;;;;;5041791;28;20559;-73
2021/12/22 01:54:29;;;;;;;26.53;21.50;;;-2.10;99.90;;;;;;5042034;28;20554;-73
2021/12/22 01:57:01;;;;;;;23.07;21.07;;;-2.20;99.90;;;;;;5041836;28;20467;-71
2021/12/22 01:59:29;;;;;;;27.10;21.50;;;-2.20;99.90;;;;;;5042672;28;20463;-71
2021/12/22 02:01:57;;;;;;;32.67;22.33;;;-2.20;99.90;;;;;;5038596;28;21124;-72
2021/12/22 02:04:24;;;;;;;22.50;20.33;;;-2.20;99.90;;;;;;5037106;28;20471;-72
2021/12/22 02:06:51;;;;;;;24.20;21.73;;;-2.20;99.90;;;;;;5040797;28;20463;-71
2021/12/22 02:09:29;;;;;;;22.00;20.10;;;-2.20;99.90;;;;;;5037844;28;20474;-72
2021/12/22 02:11:56;;;;;;;23.47;21.27;;;-2.30;99.90;;;;;;5035642;28;20471;-73
2021/12/22 02:14:23;;;;;;;24.47;21.03;;;-2.20;99.90;;;;;;5038446;28;20464;-70
2021/12/22 02:16:51;;;;;;;23.63;21.20;;;-2.20;99.90;;;;;;5040125;28;20775;-71
2021/12/22 02:19:18;;;;;;;23.30;21.10;;;-2.20;99.90;;;;;;5037859;28;20490;-70
2021/12/22 02:21:51;;;;;;;25.00;21.73;;;-2.20;99.90;;;;;;5034680;28;20491;-72
2021/12/22 02:24:18;;;;;;;26.43;21.03;;;-2.20;99.90;;;;;;5037843;28;20909;-72
2021/12/22 02:26:50;;;;;;;24.63;22.00;;;-2.30;99.90;;;;;;5040728;28;20471;-72
2021/12/22 02:29:20;;;;;;;24.60;22.03;;;-2.30;99.90;;;;;;5038181;28;20461;-70
2021/12/22 02:32:00;;;;;;;23.70;21.50;;;-2.30;99.90;;;;;;5037831;28;20584;-71
2021/12/22 02:34:27;;;;;;;24.43;22.20;;;-2.30;99.90;;;;;;5034691;28;20480;-74
2021/12/22 02:36:59;;;;;;;22.53;20.20;;;-2.40;99.90;;;;;;5041237;28;20468;-74
2021/12/22 02:39:26;;;;;;;23.43;21.10;;;-2.40;99.90;;;;;;5032934;28;20494;-72
2021/12/22 02:41:53;;;;;;;22.90;20.80;;;-2.30;99.90;;;;;;5042107;28;20468;-72
2021/12/22 02:44:20;;;;;;;24.00;21.70;;;-2.30;99.90;;;;;;5042119;28;20464;-73
2021/12/22 02:46:47;;;;;;;23.00;20.90;;;-2.30;99.90;;;;;;5034040;28;20487;-73
2021/12/22 02:49:14;;;;;;;23.33;21.03;;;-2.30;99.90;;;;;;5029876;28;20475;-70
2021/12/22 02:51:41;;;;;;;28.77;21.37;;;-2.30;99.90;;;;;;5040932;28;20468;-70
2021/12/22 02:54:14;;;;;;;23.07;20.87;;;-2.30;99.90;;;;;;5039945;28;20475;-73
2021/12/22 02:56:53;;;;;;;22.47;20.37;;;-2.30;99.90;;;;;;5039840;28;20498;-70
2021/12/22 02:59:52;;;;;;;23.80;21.40;;;-2.20;99.90;;;;;;5036338;28;20499;-74
2021/12/22 03:02:30;;;;;;;23.70;21.20;;;-2.30;99.90;;;;;;5035737;28;20534;-73
2021/12/22 03:04:58;;;;;;;23.07;20.90;;;-2.30;99.90;;;;;;5039794;28;20501;-70
2021/12/22 03:07:29;;;;;;;36.63;23.17;;;-2.30;99.90;;;;;;5037574;28;21147;-70
2021/12/22 03:10:00;;;;;;;23.80;21.60;;;-2.40;99.90;;;;;;5035761;28;20464;-71
2021/12/22 03:12:31;;;;;;;23.63;21.50;;;-2.40;99.90;;;;;;5040169;28;20460;-73
2021/12/22 03:14:58;;;;;;;24.47;21.17;;;-2.40;99.90;;;;;;5038020;28;20491;-72
2021/12/22 03:17:25;;;;;;;25.13;21.40;;;-2.40;99.90;;;;;;5032932;28;20465;-72
2021/12/22 03:19:52;;;;;;;29.80;23.07;;;-2.40;99.90;;;;;;5036594;28;20667;-70
2021/12/22 03:22:20;;;;;;;22.70;20.80;;;-2.40;99.90;;;;;;5040161;28;20778;-73
2021/12/22 03:24:50;;;;;;;23.33;21.33;;;-2.40;99.90;;;;;;5039179;28;20479;-71
2021/12/22 03:27:18;;;;;;;24.00;21.90;;;-2.40;99.90;;;;;;5039092;28;20472;-72
2021/12/22 03:29:46;;;;;;;24.77;22.57;;;-2.30;99.90;;;;;;5039586;28;20469;-70
2021/12/22 03:32:13;;;;;;;24.63;22.37;;;-2.30;99.90;;;;;;5039849;28;20497;-71
2021/12/22 03:34:41;;;;;;;24.03;21.67;;;-2.30;99.90;;;;;;5038092;28;20468;-70
2021/12/22 03:37:10;;;;;;;22.30;20.40;;;-2.20;99.90;;;;;;5037182;28;20504;-70
2021/12/22 03:39:37;;;;;;;23.70;20.90;;;-2.30;99.90;;;;;;5039637;28;20599;-73
2021/12/22 03:42:09;;;;;;;23.90;21.57;;;-2.30;99.90;;;;;;5034956;28;20508;-73
2021/12/22 03:44:38;;;;;;;30.77;21.70;;;-2.20;99.90;;;;;;5037455;28;20469;-70
2021/12/22 03:47:06;;;;;;;22.30;20.10;;;-2.20;99.90;;;;;;5041591;28;20898;-73
2021/12/22 03:49:33;;;;;;;27.43;21.53;;;-2.30;99.90;;;;;;5037947;28;20467;-70
2021/12/22 03:52:00;;;;;;;25.37;20.33;;;-2.30;99.90;;;;;;5033387;28;20475;-71
2021/12/22 03:54:27;;;;;;;23.37;21.10;;;-2.30;99.90;;;;;;5040592;28;20476;-73
2021/12/22 03:56:54;;;;;;;31.73;23.37;;;-2.30;99.90;;;;;;5039841;28;20868;-70
2021/12/22 03:59:22;;;;;;;24.20;22.00;;;-2.30;99.90;;;;;;5036252;28;20501;-71
2021/12/22 04:01:52;;;;;;;27.03;19.60;;;-2.30;99.90;;;;;;5038814;28;20464;-73
2021/12/22 04:04:19;;;;;;;26.17;22.07;;;-2.30;99.90;;;;;;5029145;28;20466;-73
2021/12/22 04:06:47;;;;;;;23.33;21.10;;;-2.30;99.90;;;;;;5035725;28;20468;-73
2021/12/22 04:09:16;;;;;;;26.20;23.40;;;-2.30;99.90;;;;;;5037187;28;21253;-73
2021/12/22 04:11:43;;;;;;;24.23;21.77;;;-2.40;99.90;;;;;;5038770;28;20465;-70
2021/12/22 04:14:10;;;;;;;23.63;21.23;;;-2.40;99.90;;;;;;5032198;28;20476;-71
2021/12/22 04:16:38;;;;;;;23.90;21.50;;;-2.40;99.90;;;;;;5039544;28;20489;-73
2021/12/22 04:19:06;;;;;;;23.00;20.90;;;-2.30;99.90;;;;;;5036996;28;20597;-72
2021/12/22 04:21:33;;;;;;;24.13;21.70;;;-2.30;99.90;;;;;;5038121;28;20526;-71
2021/12/22 04:24:01;;;;;;;23.93;21.60;;;-2.30;99.90;;;;;;5034073;28;20473;-71
2021/12/22 04:26:30;;;;;;;28.43;21.60;;;-2.30;99.90;;;;;;5039012;28;20547;-73
2021/12/22 04:28:57;;;;;;;25.13;22.50;;;-2.30;99.90;;;;;;5032446;28;20472;-70
2021/12/22 04:31:24;;;;;;;23.13;21.03;;;-2.30;99.90;;;;;;5034948;28;20552;-72
2021/12/22 04:33:51;;;;;;;22.73;20.47;;;-2.20;99.90;;;;;;5030530;28;20464;-71
2021/12/22 04:36:20;;;;;;;35.20;21.90;;;-2.30;99.90;;;;;;5036327;28;20465;-70
2021/12/22 04:38:47;;;;;;;23.37;21.07;;;-2.30;99.90;;;;;;5036239;28;20499;-70
2021/12/22 04:41:13;;;;;;;23.17;21.07;;;-2.40;99.90;;;;;;5030480;28;20466;-71
2021/12/22 04:43:40;;;;;;;24.80;22.40;;;-2.40;99.90;;;;;;5037058;28;20467;-70
2021/12/22 04:46:07;;;;;;;25.77;23.23;;;-2.40;99.90;;;;;;5032161;28;20482;-72
2021/12/22 04:48:35;;;;;;;30.67;23.87;;;-2.40;99.90;;;;;;5034460;28;20561;-72
2021/12/22 04:51:11;;;;;;;24.30;22.00;;;-2.40;99.90;;;;;;5039743;28;20469;-70
2021/12/22 04:53:50;;;;;;;23.50;21.37;;;-2.50;99.90;;;;;;5037670;28;20475;-71
2021/12/22 04:56:17;;;;;;;25.53;23.10;;;-2.50;99.90;;;;;;5037760;28;20493;-73
2021/12/22 04:58:43;;;;;;;26.30;22.10;;;-2.50;99.90;;;;;;5032754;28;20498;-73
2021/12/22 05:01:10;;;;;;;26.17;22.40;;;-2.60;99.90;;;;;;5032163;28;20467;-71
2021/12/22 05:03:37;;;;;;;27.03;22.57;;;-2.60;99.90;;;;;;5037093;28;20463;-72
2021/12/22 05:06:04;;;;;;;32.93;24.00;;;-2.50;99.90;;;;;;5039374;28;20466;-73
2021/12/22 05:08:31;;;;;;;24.80;21.60;;;-2.60;99.90;;;;;;5032847;28;20466;-73
2021/12/22 05:10:59;;;;;;;25.40;22.03;;;-2.60;99.90;;;;;;5035606;28;20990;-71
2021/12/22 05:13:26;;;;;;;29.20;23.60;;;-2.60;99.90;;;;;;5036284;28;20494;-71
2021/12/22 05:15:53;;;;;;;28.37;23.67;;;-2.60;99.90;;;;;;5039580;28;20459;-71
2021/12/22 05:18:24;;;;;;;24.87;22.33;;;-2.60;99.90;;;;;;5034003;28;21077;-70
2021/12/22 05:20:52;;;;;;;27.73;23.87;;;-2.60;99.90;;;;;;5040435;28;20962;-72
2021/12/22 05:23:19;;;;;;;26.90;23.97;;;-2.60;99.90;;;;;;5038435;28;20507;-72
2021/12/22 05:25:46;;;;;;;26.80;23.90;;;-2.60;99.90;;;;;;5039554;28;20464;-70
2021/12/22 05:28:14;;;;;;;34.70;22.70;;;-2.60;99.90;;;;;;5037622;28;20471;-73
2021/12/22 05:30:44;;;;;;;28.10;24.90;;;-2.60;99.90;;;;;;5034374;28;21158;-72
2021/12/22 05:33:10;;;;;;;25.03;21.80;;;-2.60;99.90;;;;;;5042713;28;20574;-71
2021/12/22 05:35:37;;;;;;;26.20;23.40;;;-2.60;99.90;;;;;;5035575;28;20461;-73
2021/12/22 05:38:04;;;;;;;30.90;24.30;;;-2.60;99.90;;;;;;5034779;28;20484;-72
2021/12/22 05:40:31;;;;;;;26.33;22.57;;;-2.60;99.90;;;;;;5041696;28;20993;-73
2021/12/22 05:42:58;;;;;;;28.57;25.60;;;-2.60;99.90;;;;;;5035310;28;20465;-73
2021/12/22 05:45:27;;;;;;;24.83;22.40;;;-2.60;99.90;;;;;;5040105;28;20468;-71
2021/12/22 05:47:54;;;;;;;25.73;23.17;;;-2.60;99.90;;;;;;5038255;28;20484;-70
2021/12/22 05:50:23;;;;;;;28.63;24.30;;;-2.60;99.90;;;;;;5038248;28;20526;-71
2021/12/22 05:52:50;;;;;;;26.33;23.77;;;-2.70;99.90;;;;;;5040118;28;20517;-73
2021/12/22 05:55:17;;;;;;;37.57;24.53;;;-2.70;99.90;;;;;;5038456;28;20468;-70
2021/12/22 05:57:44;;;;;;;27.80;24.80;;;-2.70;99.90;;;;;;5039481;28;20468;-73
2021/12/22 06:00:12;;;;;;;31.30;23.90;;;-2.70;99.90;;;;;;5037391;28;20879;-71
2021/12/22 06:02:40;;;;;;;29.87;23.90;;;-2.70;99.90;;;;;;5038407;28;20467;-72
2021/12/22 06:05:08;;;;;;;33.30;25.27;;;-2.70;99.90;;;;;;5033015;28;20468;-70
2021/12/22 06:07:34;;;;;;;26.77;23.03;;;-2.70;99.90;;;;;;5037236;28;20463;-73
2021/12/22 06:10:01;;;;;;;28.13;25.30;;;-2.70;99.90;;;;;;5034449;28;20461;-74
2021/12/22 06:12:28;;;;;;;29.90;24.10;;;-2.70;99.90;;;;;;5039025;28;20476;-71
2021/12/22 06:14:55;;;;;;;32.87;24.60;;;-2.70;99.90;;;;;;5040264;28;20467;-73
2021/12/22 06:17:22;;;;;;;34.40;26.30;;;-2.70;99.90;;;;;;5032850;28;20464;-69
2021/12/22 06:19:50;;;;;;;26.50;23.70;;;-2.70;99.90;;;;;;5027825;28;20507;-70
2021/12/22 06:22:18;;;;;;;28.53;23.47;;;-2.70;99.90;;;;;;5035009;28;21233;-73
2021/12/22 06:24:45;;;;;;;26.20;23.47;;;-2.70;99.90;;;;;;5035461;28;20538;-73
2021/12/22 06:27:12;;;;;;;31.13;24.60;;;-2.70;99.90;;;;;;5038108;28;21146;-73
2021/12/22 06:29:39;;;;;;;26.80;23.90;;;-2.70;99.90;;;;;;5034674;28;20464;-71
2021/12/22 06:32:07;;;;;;;28.07;24.73;;;-2.70;99.90;;;;;;5038454;28;21092;-73
2021/12/22 06:34:33;;;;;;;35.67;25.57;;;-2.70;99.90;;;;;;5033920;28;20472;-73
2021/12/22 06:37:02;;;;;;;39.53;26.50;;;-2.70;99.90;;;;;;5035259;28;20534;-69
2021/12/22 06:39:29;;;;;;;26.93;23.27;;;-2.70;99.90;;;;;;5041006;28;20499;-70
2021/12/22 06:41:55;;;;;;;33.13;25.13;;;-2.70;99.90;;;;;;5037946;28;20470;-73
2021/12/22 06:44:23;;;;;;;27.57;24.60;;;-2.70;99.90;;;;;;5039484;28;20468;-74
2021/12/22 06:46:51;;;;;;;28.43;25.03;;;-2.80;99.90;;;;;;5036669;28;20481;-72
2021/12/22 06:49:18;;;;;;;46.53;25.30;;;-2.80;99.90;;;;;;5035653;28;20476;-73
2021/12/22 06:51:45;;;;;;;28.43;25.17;;;-2.80;99.90;;;;;;5035259;28;20468;-71
2021/12/22 06:54:13;;;;;;;31.00;26.70;;;-2.80;99.90;;;;;;5035582;28;20518;-73
2021/12/22 06:56:40;;;;;;;36.40;25.30;;;-2.80;99.90;;;;;;5034952;28;21042;-70
2021/12/22 06:59:07;;;;;;;30.47;24.73;;;-2.80;99.90;;;;;;5041725;28;20490;-72
2021/12/22 07:01:36;;;;;;;50.40;27.07;;;-2.80;99.90;;;;;;5042518;28;20461;-72
2021/12/22 07:04:04;;;;;;;41.73;24.47;;;-2.80;99.90;;;;;;5036524;28;20467;-71
2021/12/22 07:06:31;;;;;;;29.23;26.13;;;-2.80;99.90;;;;;;5039057;28;20471;-70
2021/12/22 07:08:59;;;;;;;34.63;27.10;;;-2.80;99.90;;;;;;5035131;28;20466;-72
2021/12/22 07:11:27;;;;;;;36.60;25.63;;;-2.80;99.90;;;;;;5037552;28;20464;-70
2021/12/22 07:13:54;;;;;;;36.73;26.87;;;-2.80;99.90;;;;;;5036716;28;20467;-72
2021/12/22 07:16:21;;;;;;;42.27;27.50;;;-2.80;99.90;;;;;;5034013;28;20464;-71
2021/12/22 07:18:48;;;;;;;37.57;24.80;;;-2.80;99.90;;;;;;5035104;28;20469;-70
2021/12/22 07:21:15;;;;;;;30.93;25.43;;;-2.80;99.90;;;;;;5033853;28;20500;-71
2021/12/22 07:23:41;;;;;;;39.83;26.27;;;-2.80;99.90;;;;;;5034400;28;20596;-69
2021/12/22 07:26:13;;;;;;;31.17;25.33;;;-2.90;99.90;;;;;;5034177;28;20471;-70
2021/12/22 07:28:42;;;;;;;38.23;27.53;;;-2.90;99.90;;;;;;5035864;28;20468;-72
2021/12/22 07:31:09;;;;;;;34.87;27.03;;;-2.90;99.90;;;;;;5035000;28;20466;-73
2021/12/22 07:33:36;;;;;;;35.80;25.20;;;-2.80;99.90;;;;;;5038816;28;21019;-70
2021/12/22 07:36:05;;;;;;;55.00;27.60;;;-2.90;99.90;;;;;;5036150;28;20532;-70
2021/12/22 07:38:36;;;;;;;39.57;27.20;;;-2.90;99.90;;;;;;5034012;28;20465;-72
2021/12/22 07:41:05;;;;;;;47.83;26.67;;;-2.90;99.90;;;;;;5035139;28;20492;-73
2021/12/22 07:43:32;;;;;;;26.57;23.67;;;-2.80;99.90;;;;;;5033114;28;20515;-71
2021/12/22 07:46:01;;;;;;;31.23;26.10;;;-2.80;99.90;;;;;;5039904;28;20546;-71
2021/12/22 07:48:28;;;;;;;39.40;26.70;;;-2.70;99.90;;;;;;5031606;28;20488;-70
2021/12/22 07:50:55;;;;;;;27.77;24.77;;;-2.80;99.90;;;;;;5034733;28;20456;-72
2021/12/22 07:53:23;;;;;;;30.27;26.53;;;-2.80;99.90;;;;;;5039005;28;20460;-70
2021/12/22 07:55:53;;;;;;;31.23;24.40;;;-2.70;99.90;;;;;;5029690;28;20931;-70
2021/12/22 07:58:21;;;;;;;32.73;25.30;;;-2.70;99.90;;;;;;5032568;28;20837;-71
2021/12/22 08:00:48;;;;;;;29.20;24.90;;;-2.70;99.90;;;;;;5036369;28;20492;-70
2021/12/22 08:03:16;;;;;;;29.60;24.30;;;-2.70;99.90;;;;;;5033271;28;20456;-70
2021/12/22 08:05:43;;;;;;;28.80;25.70;;;-2.60;99.90;;;;;;5033778;28;20472;-73
2021/12/22 08:08:10;;;;;;;33.57;25.37;;;-2.70;99.90;;;;;;5034013;28;20846;-72
2021/12/22 08:10:37;;;;;;;35.90;26.07;;;-2.70;99.90;;;;;;5036628;28;20460;-73
2021/12/22 08:13:04;;;;;;;35.00;26.80;;;-2.60;99.90;;;;;;5034861;28;20470;-70
2021/12/22 08:15:31;;;;;;;29.73;26.60;;;-2.60;99.90;;;;;;5037264;28;20476;-71
2021/12/22 08:17:58;;;;;;;39.93;26.80;;;-2.60;99.90;;;;;;5037797;28;20463;-71
2021/12/22 08:20:46;;;;;;;37.13;27.13;;;-2.60;99.90;;;;;;5033425;28;20546;-71
2021/12/22 08:23:13;;;;;;;29.37;26.17;;;-2.50;99.90;;;;;;5036092;28;20466;-72
2021/12/22 08:25:40;;;;;;;40.23;26.50;;;-2.50;99.90;;;;;;5035821;28;20480;-71
2021/12/22 08:28:07;;;;;;;42.00;26.90;;;-2.50;99.90;;;;;;5030322;28;20455;-71
2021/12/22 08:30:34;;;;;;;32.13;26.90;;;-2.50;99.90;;;;;;5033141;28;20547;-71
2021/12/22 08:33:05;;;;;;;33.43;26.93;;;-2.40;99.90;;;;;;5043717;28;20491;-69
2021/12/22 08:38:50;;;;;;;28.80;25.67;;;-2.40;99.90;;;;;;5039494;28;20883;-73
2021/12/22 08:41:04;;;;;;;37.73;26.37;;;-2.30;99.90;;;;;;5038097;28;20505;-70
2021/12/22 08:43:31;;;;;;;39.10;28.30;;;-2.30;99.90;;;;;;5039395;28;20479;-73
2021/12/22 08:45:59;;;;;;;42.43;27.40;;;-2.20;99.90;;;;;;5039144;28;20481;-70
2021/12/22 08:48:26;;;;;;;32.20;28.47;;;-2.10;99.90;;;;;;5040338;28;20493;-72
2021/12/22 08:50:54;;;;;;;47.30;26.63;;;-2.10;99.90;;;;;;5035711;28;20643;-73
2021/12/22 08:53:22;;;;;;;35.60;27.43;;;-2.10;99.90;;;;;;5037562;28;20557;-72
2021/12/22 08:55:49;;;;;;;33.23;27.57;;;-2.00;99.90;;;;;;5039727;28;20468;-72
2021/12/22 08:58:16;;;;;;;33.63;26.67;;;-2.00;99.90;;;;;;5036613;28;20466;-71
2021/12/22 09:00:43;;;;;;;29.70;26.20;;;-1.90;99.90;;;;;;5044638;28;20503;-71
2021/12/22 09:03:10;;;;;;;45.83;28.10;;;-1.90;99.90;;;;;;5036080;28;20472;-70
2021/12/22 09:05:37;;;;;;;34.50;27.63;;;-1.80;99.90;;;;;;5039251;28;20462;-72
2021/12/22 09:08:05;;;;;;;38.00;28.07;;;-1.80;99.90;;;;;;5032551;28;20471;-73
2021/12/22 09:10:33;;;;;;;35.63;27.70;;;-1.70;99.90;;;;;;5038436;28;20466;-73
2021/12/22 09:13:00;;;;;;;30.83;27.03;;;-1.70;99.90;;;;;;5038303;28;20527;-73
2021/12/22 09:15:28;;;;;;;46.50;30.00;;;-1.70;99.90;;;;;;5043375;28;20475;-70
2021/12/22 09:17:55;;;;;;;34.20;27.23;;;-1.70;99.90;;;;;;5036416;28;20487;-73
2021/12/22 09:20:22;;;;;;;31.00;26.60;;;-1.60;99.90;;;;;;5038685;28;20487;-72
2021/12/22 09:22:49;;;;;;;42.13;28.03;;;-1.50;99.90;;;;;;5038893;28;20464;-71
2021/12/22 09:25:18;;;;;;;33.63;28.47;;;-1.50;99.90;;;;;;5040918;28;20510;-72
2021/12/22 09:27:45;;;;;;;31.73;28.33;;;-1.40;99.90;;;;;;5036103;28;20463;-71
2021/12/22 09:30:12;;;;;;;34.37;30.20;;;-1.30;99.90;;;;;;5039485;28;20889;-71
2021/12/22 09:32:39;;;;;;;39.30;28.33;;;-1.20;99.90;;;;;;5042013;28;20488;-71
2021/12/22 09:35:07;;;;;;;31.43;27.93;;;-1.20;99.90;;;;;;5034727;28;20487;-72
2021/12/22 09:37:34;;;;;;;42.57;30.07;;;-1.10;99.90;;;;;;5035247;28;20837;-72
2021/12/22 09:40:02;;;;;;;34.60;29.00;;;-1.00;99.90;;;;;;5033284;28;20902;-72
2021/12/22 09:42:30;;;;;;;36.57;29.27;;;-0.90;99.90;;;;;;5041215;28;20483;-71
2021/12/22 09:45:00;;;;;;;42.43;29.53;;;-0.90;99.90;;;;;;5033674;28;20993;-72
2021/12/22 09:47:31;;;;;;;46.57;31.10;;;-0.80;99.90;;;;;;5034849;28;20485;-72
2021/12/22 09:50:09;;;;;;;37.07;30.40;;;-0.80;99.90;;;;;;5035897;28;20548;-72
2021/12/22 09:52:37;;;;;;;38.43;31.57;;;-0.70;99.90;;;;;;5041910;28;20461;-71
2021/12/22 09:55:06;;;;;;;39.57;31.80;;;-0.60;99.90;;;;;;5033283;28;20481;-72
2021/12/22 09:57:35;;;;;;;50.50;31.50;;;-0.50;99.90;;;;;;5038971;28;20471;-72
2021/12/22 10:00:03;;;;;;;41.97;30.87;;;-0.40;99.90;;;;;;5040168;28;20928;-71
2021/12/22 10:02:31;;;;;;;52.57;32.20;;;-0.40;99.90;;;;;;5039845;28;20462;-71
2021/12/22 10:04:58;;;;;;;40.50;33.13;;;-0.40;99.90;;;;;;5036623;28;20468;-72
2021/12/22 10:07:27;;;;;;;37.50;31.30;;;-0.40;99.90;;;;;;5037656;28;20463;-72
2021/12/22 10:09:55;;;;;;;50.83;32.90;;;-0.40;99.90;;;;;;5038886;28;20494;-71
2021/12/22 10:12:24;;;;;;;44.33;35.07;;;-0.30;99.90;;;;;;5036951;28;20464;-71
2021/12/22 10:14:55;;;;;;;42.27;33.70;;;-0.20;99.90;;;;;;5034978;28;20471;-70
2021/12/22 10:17:33;;;;;;;48.60;35.70;;;-0.10;99.90;;;;;;5043780;28;20458;-73
2021/12/22 10:20:01;;;;;;;39.40;34.80;;;0.00;99.90;;;;;;5037970;28;20478;-71
2021/12/22 10:22:33;;;;;;;42.03;34.33;;;0.00;99.90;;;;;;5035320;28;20468;-72
2021/12/22 10:25:10;;;;;;;48.03;33.70;;;0.10;99.90;;;;;;5040711;28;20472;-72
2021/12/22 10:27:40;;;;;;;47.73;36.10;;;0.10;99.90;;;;;;5039176;28;20456;-71
2021/12/22 10:30:29;;;;;;;45.87;37.70;;;0.20;99.90;;;;;;5037234;28;20996;-72
2021/12/22 10:33:11;;;;;;;54.33;37.10;;;0.30;99.90;;;;;;5033125;28;20480;-71
2021/12/22 10:35:40;;;;;;;39.00;33.10;;;0.30;99.90;;;;;;5037827;28;20473;-70
2021/12/22 10:38:08;;;;;;;43.33;36.10;;;0.40;99.90;;;;;;5034793;28;20640;-70
2021/12/22 10:40:37;;;;;;;40.63;35.40;;;0.40;99.90;;;;;;5035858;28;20916;-71
2021/12/22 10:43:05;;;;;;;38.20;34.37;;;0.40;99.90;;;;;;5032926;28;20476;-70
2021/12/22 10:45:35;;;;;;;40.60;36.23;;;0.50;99.90;;;;;;5039528;28;20822;-71
2021/12/22 10:50:53;;;;;;;43.83;39.10;;;0.60;99.90;;;;;;5040172;28;21062;-70
2021/12/22 10:53:20;;;;;;;47.07;38.60;;;0.60;99.90;;;;;;5037986;28;20832;-69
2021/12/22 10:55:50;;;;;;;50.87;40.60;;;0.70;99.90;;;;;;5040237;28;20467;-71
2021/12/22 10:58:19;;;;;;;44.43;39.30;;;0.80;99.90;;;;;;5039361;28;20569;-69
2021/12/22 11:01:05;;;;;;;44.70;39.00;;;1.00;99.90;;;;;;5040580;28;20494;-70
2021/12/22 11:03:39;;;;;;;43.03;38.03;;;1.10;99.90;;;;;;5042036;28;20459;-72
2021/12/22 11:06:20;;;;;;;48.93;40.83;;;1.20;99.90;;;;;;5032344;28;20803;-69
2021/12/22 11:08:58;;;;;;;55.90;40.50;;;1.40;99.90;;;;;;5040156;28;20495;-72
2021/12/22 11:11:31;;;;;;;48.50;38.80;;;1.40;99.90;;;;;;5037491;28;20465;-72
2021/12/22 11:14:13;;;;;;;51.27;39.90;;;1.40;99.90;;;;;;5035479;28;20466;-72
2021/12/22 11:17:08;;;;;;;43.73;38.93;;;1.50;99.90;;;;;;5031517;28;20479;-71
2021/12/22 11:19:39;;;;;;;44.90;37.73;;;1.60;99.90;;;;;;5033503;28;20471;-71
2021/12/22 11:22:11;;;;;;;41.97;37.03;;;1.60;99.90;;;;;;5040614;28;20507;-70
2021/12/22 11:24:42;;;;;;;45.53;37.60;;;1.60;99.90;;;;;;5036958;28;20461;-70
2021/12/22 11:27:12;;;;;;;45.73;38.07;;;1.80;99.90;;;;;;5043881;28;20464;-68
2021/12/22 11:29:41;;;;;;;48.67;38.67;;;1.80;99.90;;;;;;5037013;28;20478;-71
2021/12/22 11:32:13;;;;;;;48.30;39.67;;;1.80;99.90;;;;;;5035263;28;20847;-68
2021/12/22 11:34:41;;;;;;;43.63;38.40;;;1.90;99.90;;;;;;5039713;28;20463;-73
2021/12/22 11:37:10;;;;;;;45.23;38.40;;;2.00;99.90;;;;;;5030424;28;20475;-69
2021/12/22 11:39:37;;;;;;;42.97;38.57;;;2.10;99.90;;;;;;5037151;28;20615;-71
2021/12/22 11:42:08;;;;;;;47.57;39.60;;;2.40;99.90;;;;;;5034146;28;20492;-70
2021/12/22 11:44:36;;;;;;;43.97;39.57;;;2.70;99.90;;;;;;5032049;28;20460;-72
2021/12/22 11:47:05;;;;;;;47.57;40.60;;;3.10;99.90;;;;;;5031299;28;20484;-71
2021/12/22 11:49:37;;;;;;;47.17;38.80;;;2.90;99.90;;;;;;5034391;28;20476;-71
2021/12/22 11:52:36;;;;;;;44.53;39.50;;;3.00;99.90;;;;;;5038664;28;20464;-70
2021/12/22 11:55:12;;;;;;;43.10;38.80;;;3.30;99.90;;;;;;5033536;28;20500;-71
2021/12/22 11:57:39;;;;;;;46.97;41.03;;;3.50;99.90;;;;;;5034044;28;20777;-69
2021/12/22 12:00:27;;;;;;;54.63;41.67;;;3.60;99.90;;;;;;5037249;28;20471;-68
2021/12/22 12:02:56;;;;;;;42.67;37.97;;;4.10;99.90;;;;;;5031624;28;20454;-70
2021/12/22 12:05:25;;;;;;;39.83;35.90;;;4.30;99.90;;;;;;5034427;28;20474;-69
2021/12/22 12:07:55;;;;;;;45.77;34.80;;;4.60;99.90;;;;;;5036318;28;20469;-70
2021/12/22 12:10:45;;;;;;;35.10;31.63;;;4.70;99.90;;;;;;5033917;28;20475;-69
2021/12/22 12:13:21;;;;;;;36.17;32.40;;;4.60;99.90;;;;;;5038143;28;20601;-68
2021/12/22 12:22:04;;;;;;;34.17;28.30;;;6.10;99.90;;;;;;5042195;28;20488;-70
2021/12/22 12:24:37;;;;;;;33.40;29.83;;;6.10;99.90;;;;;;5038214;28;20475;-68
2021/12/22 12:27:46;;;;;;;33.03;29.63;;;6.50;99.90;;;;;;5037335;28;21094;-69
2021/12/22 12:30:19;;;;;;;35.43;28.43;;;6.70;99.90;;;;;;5008700;28;20470;-69
2021/12/22 12:33:10;;;;;;;30.97;27.93;;;6.40;99.90;;;;;;5036170;28;20487;-70
2021/12/22 12:35:57;;;;;;;33.57;28.40;;;5.90;99.90;;;;;;5034906;28;20816;-69
2021/12/22 12:38:30;;;;;;;30.97;27.73;;;5.80;99.90;;;;;;5034450;28;20465;-68
2021/12/22 12:41:15;;;;;;;39.47;28.30;;;5.60;99.90;;;;;;5034283;28;20601;-67
2021/12/22 12:44:08;;;;;;;34.57;29.27;;;5.70;99.90;;;;;;5031215;28;20534;-69
2021/12/22 12:46:39;;;;;;;34.73;27.47;;;6.00;99.90;;;;;;5038357;28;20462;-67
2021/12/22 12:49:30;;;;;;;31.27;28.13;;;6.30;99.90;;;;;;5040619;28;20473;-68
2021/12/22 12:51:59;;;;;;;31.80;28.63;;;6.20;99.90;;;;;;5039401;28;20627;-68
2021/12/22 12:54:30;;;;;;;32.23;28.93;;;5.90;99.90;;;;;;5034465;28;20575;-68